Time;durP1;ratioP1;P1;durP2;ratioP2;P2;SDS_P1;SDS_P2;PMS_P1;PMS_P2;Temp;Humidity;BMP_temperature;BMP_pressure;BME280_temperature;BME280_humidity;BME280_pressure;Samples;Min_cycle;Max_cycle;Signal;HPM_P1;HPM_P2
2023/05/04 00:00:04;;;;;;;;;;;;;;;13.85;74.21;100472.94;5090577;28;20658;-55
2023/05/04 00:02:30;;;;;;;;;;;;;;;13.79;74.96;100465.19;5092025;28;20401;-55
2023/05/04 00:04:55;;;;;;;;;;;;;;;13.73;76.02;100460.03;5089935;28;19930;-55
2023/05/04 00:07:20;;;;;;;;;;;;;;;13.68;75.70;100464.69;5091518;28;20371;-55
2023/05/04 00:09:45;;;;;;;;;;;;;;;13.61;76.42;100455.16;5090063;28;19946;-55
2023/05/04 00:12:11;;;;;;;;;;;;;;;13.54;76.65;100467.88;5092415;28;20675;-55
2023/05/04 00:14:36;;;;;;;;;;;;;;;13.47;76.73;100460.16;5092254;28;19986;-55
2023/05/04 00:17:05;;;;;;;;;;;;;;;13.35;77.33;100457.94;5091269;28;19922;-55
2023/05/04 00:19:31;;;;;;;;;;;;;;;13.38;77.41;100447.16;5090344;28;19932;-55
2023/05/04 00:21:56;;;;;;;;;;;;;;;13.37;78.00;100450.75;5091220;28;19999;-56
2023/05/04 00:24:21;;;;;;;;;;;;;;;13.36;77.84;100454.34;5091595;28;20023;-55
2023/05/04 00:26:47;;;;;;;;;;;;;;;13.31;78.05;100443.81;5090722;28;19923;-55
2023/05/04 00:29:12;;;;;;;;;;;;;;;13.29;78.04;100442.13;5091679;28;19924;-56
2023/05/04 00:31:37;;;;;;;;;;;;;;;13.24;78.41;100448.50;5090223;28;20370;-55
2023/05/04 00:34:02;;;;;;;;;;;;;;;13.20;78.11;100449.56;5071256;28;19921;-55
2023/05/04 00:36:28;;;;;;;;;;;;;;;13.17;78.49;100447.00;5070974;28;20003;-56
2023/05/04 00:38:53;;;;;;;;;;;;;;;13.16;78.15;100437.22;5085273;28;19923;-55
2023/05/04 00:41:19;;;;;;;;;;;;;;;13.09;79.26;100437.53;5090264;28;19926;-56
2023/05/04 00:43:45;;;;;;;;;;;;;;;13.00;79.77;100435.13;5090840;28;19959;-55
2023/05/04 00:46:10;;;;;;;;;;;;;;;12.97;80.54;100436.13;5090042;28;19920;-55
2023/05/04 00:48:37;;;;;;;;;;;;;;;12.96;80.56;100433.53;5089961;28;19924;-55
2023/05/04 00:51:02;;;;;;;;;;;;;;;12.90;80.95;100428.38;5069186;28;19918;-55
2023/05/04 00:53:27;;;;;;;;;;;;;;;12.87;80.63;100434.72;5070558;28;19920;-56
2023/05/04 00:55:53;;;;;;;;;;;;;;;12.86;80.43;100419.63;5084764;28;19924;-55
2023/05/04 00:58:18;;;;;;;;;;;;;;;12.85;80.79;100419.69;5090943;28;19969;-56
2023/05/04 01:00:43;;;;;;;;;;;;;;;12.84;80.38;100424.16;5090085;28;20454;-56
2023/05/04 01:03:09;;;;;;;;;;;;;;;12.88;80.42;100419.56;5089364;28;19931;-56
2023/05/04 01:05:37;;;;;;;;;;;;;;;12.86;80.55;100422.31;5071849;28;20010;-56
2023/05/04 01:08:02;;;;;;;;;;;;;;;12.87;80.45;100431.16;5088989;28;19932;-56
2023/05/04 01:10:38;;;;;;;;;;;;;;;12.81;80.31;100426.94;5089946;28;19919;-56
2023/05/04 01:13:11;;;;;;;;;;;;;;;12.82;80.48;100420.66;5091537;28;19920;-56
2023/05/04 01:15:37;;;;;;;;;;;;;;;12.83;80.60;100416.19;5089794;28;19911;-56
2023/05/04 01:18:02;;;;;;;;;;;;;;;12.80;80.48;100422.50;5089214;28;20639;-56
2023/05/04 01:20:28;;;;;;;;;;;;;;;12.75;81.12;100424.44;5089577;28;20356;-56
2023/05/04 01:22:53;;;;;;;;;;;;;;;12.76;80.79;100420.88;5090186;28;20415;-56
2023/05/04 01:25:19;;;;;;;;;;;;;;;12.76;80.70;100426.22;5089228;28;20031;-56
2023/05/04 01:27:48;;;;;;;;;;;;;;;12.75;81.17;100424.44;5089719;28;20272;-56
2023/05/04 01:30:18;;;;;;;;;;;;;;;12.76;80.94;100426.22;5089443;28;20007;-56
2023/05/04 01:32:44;;;;;;;;;;;;;;;12.74;81.06;100429.84;5090001;28;20006;-56
2023/05/04 01:35:11;;;;;;;;;;;;;;;12.77;80.96;100433.28;5089515;28;20011;-55
2023/05/04 01:37:36;;;;;;;;;;;;;;;12.70;80.92;100431.75;5090952;28;19916;-56
2023/05/04 01:40:03;;;;;;;;;;;;;;;12.61;80.91;100432.06;5091573;28;19938;-56
2023/05/04 01:42:28;;;;;;;;;;;;;;;12.57;81.79;100435.75;5088836;28;19924;-56
2023/05/04 01:44:53;;;;;;;;;;;;;;;12.56;81.01;100439.38;5090069;28;20359;-56
2023/05/04 01:47:18;;;;;;;;;;;;;;;12.50;81.53;100434.25;5089895;28;19939;-56
2023/05/04 01:49:44;;;;;;;;;;;;;;;12.44;81.59;100429.09;5087781;28;19929;-56
2023/05/04 01:52:09;;;;;;;;;;;;;;;12.36;82.15;100432.94;5089313;28;19912;-55
2023/05/04 01:54:34;;;;;;;;;;;;;;;12.31;82.47;100433.09;5089811;28;19939;-56
2023/05/04 01:57:01;;;;;;;;;;;;;;;12.31;83.18;100435.75;5089105;28;20005;-56
2023/05/04 01:59:26;;;;;;;;;;;;;;;12.30;83.38;100433.16;5089640;28;19931;-56
2023/05/04 02:01:51;;;;;;;;;;;;;;;12.19;83.80;100427.31;5088851;28;19916;-56
2023/05/04 02:04:16;;;;;;;;;;;;;;;12.09;83.60;100426.75;5106303;28;19923;-56
2023/05/04 02:06:42;;;;;;;;;;;;;;;11.96;84.72;100433.34;5110059;28;20289;-56
2023/05/04 02:09:07;;;;;;;;;;;;;;;11.89;85.53;100427.34;5092356;28;19924;-56
2023/05/04 02:11:32;;;;;;;;;;;;;;;11.94;85.11;100427.22;5091298;28;19920;-56
2023/05/04 02:13:57;;;;;;;;;;;;;;;11.99;85.58;100427.06;5089462;28;19920;-56
2023/05/04 02:16:23;;;;;;;;;;;;;;;11.98;85.86;100428.84;5088834;28;19920;-56
2023/05/04 02:18:48;;;;;;;;;;;;;;;11.94;85.83;100437.88;5089855;28;19939;-56
2023/05/04 02:21:13;;;;;;;;;;;;;;;11.89;85.80;100419.34;5088981;28;19916;-56
2023/05/04 02:23:39;;;;;;;;;;;;;;;11.85;87.01;100417.72;5089582;28;19916;-56
2023/05/04 02:26:04;;;;;;;;;;;;;;;11.82;86.91;100427.59;5089032;28;20311;-56
2023/05/04 02:28:29;;;;;;;;;;;;;;;11.75;86.54;100428.69;5088107;28;19959;-56
2023/05/04 02:30:54;;;;;;;;;;;;;;;11.70;87.35;100427.97;5088798;28;19934;-56
2023/05/04 02:33:20;;;;;;;;;;;;;;;11.62;86.89;100422.84;5087855;28;20278;-56
2023/05/04 02:35:45;;;;;;;;;;;;;;;11.58;87.53;100426.50;5088656;28;20383;-56
2023/05/04 02:38:10;;;;;;;;;;;;;;;11.54;86.88;100422.22;5088322;28;19971;-56
2023/05/04 02:40:35;;;;;;;;;;;;;;;11.59;87.84;100424.72;5087721;28;19926;-56
2023/05/04 02:43:01;;;;;;;;;;;;;;;11.61;87.23;100422.91;5088538;28;19965;-56
2023/05/04 02:45:26;;;;;;;;;;;;;;;11.54;87.53;100410.66;5088837;28;19931;-56
2023/05/04 02:47:51;;;;;;;;;;;;;;;11.47;87.63;100417.09;5089495;28;20269;-56
2023/05/04 02:50:17;;;;;;;;;;;;;;;11.43;88.02;100420.78;5070870;28;19920;-56
2023/05/04 02:52:42;;;;;;;;;;;;;;;11.40;88.43;100427.06;5088510;28;20386;-56
2023/05/04 02:55:07;;;;;;;;;;;;;;;11.35;89.15;100420.13;5089264;28;19923;-56
2023/05/04 02:57:33;;;;;;;;;;;;;;;11.29;89.23;100420.28;5089246;28;19923;-56
2023/05/04 02:59:58;;;;;;;;;;;;;;;11.26;88.80;100415.06;5089875;28;19986;-56
2023/05/04 03:02:23;;;;;;;;;;;;;;;11.23;88.93;100415.16;5091876;28;20446;-56
2023/05/04 03:04:48;;;;;;;;;;;;;;;11.30;89.19;100411.41;5092734;28;19924;-56
2023/05/04 03:07:14;;;;;;;;;;;;;;;11.30;89.54;100414.06;5092243;28;19919;-56
2023/05/04 03:09:39;;;;;;;;;;;;;;;11.28;90.16;100408.78;5094813;28;19955;-56
2023/05/04 03:12:05;;;;;;;;;;;;;;;11.26;90.52;100410.63;5076051;28;19920;-56
2023/05/04 03:14:30;;;;;;;;;;;;;;;11.23;90.96;100404.50;5092190;28;20010;-56
2023/05/04 03:16:55;;;;;;;;;;;;;;;11.20;89.97;100405.44;5092842;28;19923;-56
2023/05/04 03:19:21;;;;;;;;;;;;;;;11.24;90.32;100404.47;5091771;28;19974;-56
2023/05/04 03:21:46;;;;;;;;;;;;;;;11.24;90.21;100400.91;5091851;28;19923;-56
2023/05/04 03:24:11;;;;;;;;;;;;;;;11.20;89.67;100402.78;5091517;28;19923;-56
2023/05/04 03:26:37;;;;;;;;;;;;;;;11.17;90.46;100405.53;5092454;28;19916;-56
2023/05/04 03:29:02;;;;;;;;;;;;;;;11.10;90.08;100403.13;5092516;28;19920;-56
2023/05/04 03:31:27;;;;;;;;;;;;;;;11.12;90.23;100401.28;5092642;28;20296;-56
2023/05/04 03:33:52;;;;;;;;;;;;;;;11.07;90.84;100398.72;5091625;28;19920;-56
2023/05/04 03:36:18;;;;;;;;;;;;;;;11.08;90.55;100396.97;5092002;28;20402;-56
2023/05/04 03:38:43;;;;;;;;;;;;;;;11.06;91.09;100397.00;5092278;28;19924;-56
2023/05/04 03:41:09;;;;;;;;;;;;;;;10.97;90.02;100391.94;5091075;28;19924;-56
2023/05/04 03:43:34;;;;;;;;;;;;;;;10.97;90.26;100385.75;5091285;28;19920;-56
2023/05/04 03:45:59;;;;;;;;;;;;;;;10.93;91.53;100384.97;5091102;28;19916;-56
2023/05/04 03:48:25;;;;;;;;;;;;;;;10.90;91.55;100386.84;5093402;28;19927;-56
2023/05/04 03:50:50;;;;;;;;;;;;;;;10.84;91.67;100381.69;5089873;28;19923;-56
2023/05/04 03:53:15;;;;;;;;;;;;;;;10.86;90.74;100379.84;5091257;28;19943;-56
2023/05/04 03:55:41;;;;;;;;;;;;;;;10.85;91.54;100380.75;5092771;28;19961;-56
2023/05/04 03:58:06;;;;;;;;;;;;;;;10.84;91.83;100379.03;5092257;28;20426;-56
2023/05/04 04:00:31;;;;;;;;;;;;;;;10.87;91.36;100378.94;5091124;28;19920;-56
2023/05/04 04:02:57;;;;;;;;;;;;;;;10.89;91.81;100382.44;5091759;28;19963;-55
2023/05/04 04:05:22;;;;;;;;;;;;;;;10.89;91.97;100388.59;5090813;28;19926;-56
2023/05/04 04:07:47;;;;;;;;;;;;;;;10.83;91.55;100378.16;5106698;28;19915;-56
2023/05/04 04:10:12;;;;;;;;;;;;;;;10.83;92.71;100378.16;5111028;28;19920;-56
2023/05/04 04:12:38;;;;;;;;;;;;;;;10.81;91.83;100390.63;5096730;28;19920;-56
2023/05/04 04:15:03;;;;;;;;;;;;;;;10.73;91.80;100397.06;5087553;28;19916;-56
2023/05/04 04:17:28;;;;;;;;;;;;;;;10.75;92.43;100381.94;5088157;28;19920;-56
2023/05/04 04:19:54;;;;;;;;;;;;;;;10.72;91.91;100388.22;5090607;28;19916;-55
2023/05/04 04:22:19;;;;;;;;;;;;;;;10.70;92.34;100386.50;5091340;28;19916;-56
2023/05/04 04:24:44;;;;;;;;;;;;;;;10.70;92.36;100391.81;5091400;28;19916;-56
2023/05/04 04:27:10;;;;;;;;;;;;;;;10.75;92.37;100392.56;5090737;28;19920;-56
2023/05/04 04:29:36;;;;;;;;;;;;;;;10.85;92.21;100392.28;5091495;28;20622;-56
2023/05/04 04:32:01;;;;;;;;;;;;;;;10.91;92.17;100392.09;5091718;28;20339;-56
2023/05/04 04:34:26;;;;;;;;;;;;;;;10.98;92.21;100387.47;5091415;28;19919;-56
2023/05/04 04:36:52;;;;;;;;;;;;;;;11.01;92.87;100392.72;5090450;28;19915;-56
2023/05/04 04:39:17;;;;;;;;;;;;;;;10.96;92.73;100389.31;5090922;28;19924;-56
2023/05/04 04:41:42;;;;;;;;;;;;;;;10.86;92.74;100395.81;5090850;28;19916;-56
2023/05/04 04:44:08;;;;;;;;;;;;;;;10.88;92.01;100391.31;5111575;28;20285;-56
2023/05/04 04:46:33;;;;;;;;;;;;;;;10.97;93.11;100388.41;5091441;28;19920;-56
2023/05/04 04:48:58;;;;;;;;;;;;;;;11.04;92.83;100387.28;5090696;28;19963;-56
2023/05/04 04:51:23;;;;;;;;;;;;;;;11.15;92.64;100390.53;5089731;28;20658;-56
2023/05/04 04:53:50;;;;;;;;;;;;;;;11.20;92.31;100388.63;5090888;28;20206;-56
2023/05/04 04:56:17;;;;;;;;;;;;;;;11.18;91.31;100390.44;5091117;28;19970;-56
2023/05/04 04:58:42;;;;;;;;;;;;;;;11.22;91.43;100394.78;5091320;28;19916;-56
2023/05/04 05:01:07;;;;;;;;;;;;;;;11.35;91.65;100396.16;5089442;28;19923;-56
2023/05/04 05:03:33;;;;;;;;;;;;;;;11.49;91.19;100396.63;5093041;28;19923;-56
2023/05/04 05:06:00;;;;;;;;;;;;;;;11.58;92.05;100401.69;5089782;28;19920;-56
2023/05/04 05:08:25;;;;;;;;;;;;;;;11.71;91.76;100392.41;5090702;28;19924;-56
2023/05/04 05:10:51;;;;;;;;;;;;;;;11.82;91.52;100395.59;5089658;28;19927;-56
2023/05/04 05:13:16;;;;;;;;;;;;;;;11.93;91.46;100396.13;5089094;28;19927;-56
2023/05/04 05:15:41;;;;;;;;;;;;;;;12.05;91.43;100393.09;5089650;28;19916;-56
2023/05/04 05:18:06;;;;;;;;;;;;;;;12.25;90.52;100393.31;5089717;28;19916;-56
2023/05/04 05:20:33;;;;;;;;;;;;;;;12.40;90.43;100390.13;5088647;28;19920;-56
2023/05/04 05:22:58;;;;;;;;;;;;;;;12.55;91.05;100394.06;5087690;28;19927;-56
2023/05/04 05:25:23;;;;;;;;;;;;;;;12.76;90.64;100386.19;5089968;28;19916;-56
2023/05/04 05:27:49;;;;;;;;;;;;;;;12.99;89.71;100391.56;5080862;28;19921;-56
2023/05/04 05:30:14;;;;;;;;;;;;;;;13.08;88.15;100401.03;5051751;28;20009;-56
2023/05/04 05:32:40;;;;;;;;;;;;;;;13.24;87.45;100402.25;5073593;28;19927;-56
2023/05/04 05:35:05;;;;;;;;;;;;;;;13.58;87.95;100401.81;5089232;28;20630;-56
2023/05/04 05:37:31;;;;;;;;;;;;;;;13.99;84.53;100403.72;5089385;28;19916;-56
2023/05/04 05:39:56;;;;;;;;;;;;;;;14.23;82.29;100400.06;5088310;28;20526;-56
2023/05/04 05:42:21;;;;;;;;;;;;;;;14.29;81.75;100398.06;5095866;28;19915;-56
2023/05/04 05:44:46;;;;;;;;;;;;;;;14.47;81.01;100401.75;5090492;28;20058;-56
2023/05/04 05:47:15;;;;;;;;;;;;;;;14.53;80.18;100401.47;5090009;28;19916;-56
2023/05/04 05:49:40;;;;;;;;;;;;;;;14.52;79.14;100405.09;5092094;28;19927;-56
2023/05/04 05:52:05;;;;;;;;;;;;;;;14.60;78.75;100411.00;5089050;28;19920;-56
2023/05/04 05:54:31;;;;;;;;;;;;;;;14.72;78.75;100396.22;5090305;28;19920;-56
2023/05/04 05:56:57;;;;;;;;;;;;;;;14.80;77.28;100405.66;5088878;28;20034;-56
2023/05/04 05:59:22;;;;;;;;;;;;;;;14.92;76.62;100409.63;5089797;28;20493;-56
2023/05/04 06:01:47;;;;;;;;;;;;;;;15.03;77.25;100418.91;5089407;28;20034;-56
2023/05/04 06:04:13;;;;;;;;;;;;;;;15.11;76.50;100414.09;5092144;28;19923;-56
2023/05/04 06:06:38;;;;;;;;;;;;;;;15.11;76.32;100408.72;5089010;28;19920;-56
2023/05/04 06:09:04;;;;;;;;;;;;;;;15.23;75.38;100416.22;5089695;28;19920;-56
2023/05/04 06:11:30;;;;;;;;;;;;;;;15.32;74.70;100404.22;5088736;28;20318;-56
2023/05/04 06:13:56;;;;;;;;;;;;;;;15.32;74.04;100404.22;5089644;28;19973;-56
2023/05/04 06:16:21;;;;;;;;;;;;;;;15.46;74.55;100413.41;5079552;28;19916;-56
2023/05/04 06:18:46;;;;;;;;;;;;;;;15.63;74.00;100413.47;5089165;28;19963;-56
2023/05/04 06:21:12;;;;;;;;;;;;;;;15.71;74.35;100403.28;5089575;28;19916;-56
2023/05/04 06:23:37;;;;;;;;;;;;;;;15.76;73.21;100406.59;5086913;28;19999;-56
2023/05/04 06:26:06;;;;;;;;;;;;;;;15.87;72.15;100398.03;5088325;28;20345;-56
2023/05/04 06:28:32;;;;;;;;;;;;;;;16.11;71.12;100395.97;5086609;28;20026;-56
2023/05/04 06:30:57;;;;;;;;;;;;;;;16.17;70.92;100406.41;5079541;28;20027;-56
2023/05/04 06:33:23;;;;;;;;;;;;;;;16.23;71.17;100398.03;5067342;28;19924;-56
2023/05/04 06:35:48;;;;;;;;;;;;;;;16.52;70.80;100389.44;5083813;28;19916;-56
2023/05/04 06:38:13;;;;;;;;;;;;;;;16.72;71.00;100379.41;5092652;28;19920;-56
2023/05/04 06:40:38;;;;;;;;;;;;;;;16.98;68.85;100388.81;5083607;28;19962;-56
2023/05/04 06:43:04;;;;;;;;;;;;;;;17.27;69.29;100390.81;5093248;28;20441;-56
2023/05/04 06:45:29;;;;;;;;;;;;;;;17.49;67.54;100388.75;5089978;28;19924;-56
2023/05/04 06:47:54;;;;;;;;;;;;;;;17.78;67.09;100392.47;5092119;28;20288;-56
2023/05/04 06:50:22;;;;;;;;;;;;;;;17.93;63.43;100387.13;5093066;28;19942;-56
2023/05/04 06:52:47;;;;;;;;;;;;;;;18.25;63.87;100380.75;5092104;28;19927;-56
2023/05/04 06:55:13;;;;;;;;;;;;;;;18.62;63.19;100386.69;5093574;28;19916;-56
2023/05/04 06:57:38;;;;;;;;;;;;;;;18.86;61.95;100393.31;5093140;28;20653;-57
2023/05/04 07:00:03;;;;;;;;;;;;;;;19.05;62.20;100388.53;5092274;28;19919;-56
2023/05/04 07:02:29;;;;;;;;;;;;;;;19.13;60.30;100388.94;5092737;28;19920;-56
2023/05/04 07:04:55;;;;;;;;;;;;;;;19.34;61.34;100385.81;5092258;28;19924;-56
2023/05/04 07:07:20;;;;;;;;;;;;;;;19.56;57.86;100390.72;5092787;28;20050;-56
2023/05/04 07:09:47;;;;;;;;;;;;;;;19.67;55.67;100404.38;5092996;28;20011;-56
2023/05/04 07:12:12;;;;;;;;;;;;;;;19.71;56.10;100399.66;5092080;28;19926;-56
2023/05/04 07:14:37;;;;;;;;;;;;;;;19.74;54.60;100404.88;5095389;28;19920;-56
2023/05/04 07:17:03;;;;;;;;;;;;;;;19.71;55.55;100402.38;5092135;28;19916;-56
2023/05/04 07:19:28;;;;;;;;;;;;;;;20.01;55.41;100395.88;5089835;28;20371;-56
2023/05/04 07:21:54;;;;;;;;;;;;;;;20.40;54.39;100395.97;5089991;28;19920;-56
2023/05/04 07:24:20;;;;;;;;;;;;;;;20.78;53.95;100396.09;5072048;28;19980;-56
2023/05/04 07:26:45;;;;;;;;;;;;;;;21.20;53.89;100400.41;5090133;28;20583;-56
2023/05/04 07:29:10;;;;;;;;;;;;;;;21.50;51.17;100398.25;5089745;28;19952;-57
2023/05/04 07:31:37;;;;;;;;;;;;;;;21.77;50.28;100401.72;5090210;28;20418;-56
2023/05/04 07:34:02;;;;;;;;;;;;;;;21.72;48.87;100395.72;5091732;28;20137;-57
2023/05/04 07:36:27;;;;;;;;;;;;;;;21.95;50.47;100389.53;5091050;28;19998;-56
2023/05/04 07:38:53;;;;;;;;;;;;;;;21.84;50.09;100392.16;5091457;28;19920;-56
2023/05/04 07:41:18;;;;;;;;;;;;;;;22.47;50.41;100390.09;5091322;28;19920;-56
2023/05/04 07:43:44;;;;;;;;;;;;;;;22.76;47.64;100386.06;5090065;28;19920;-56
2023/05/04 07:46:09;;;;;;;;;;;;;;;22.88;47.30;100390.53;5091193;28;20253;-56
2023/05/04 07:48:35;;;;;;;;;;;;;;;22.99;46.01;100389.72;5092398;28;19928;-57
2023/05/04 07:51:00;;;;;;;;;;;;;;;23.33;46.11;100381.56;5089220;28;20366;-57
2023/05/04 07:53:25;;;;;;;;;;;;;;;23.74;44.83;100385.53;5091074;28;19916;-57
2023/05/04 07:55:53;;;;;;;;;;;;;;;24.01;44.86;100380.59;5090429;28;20418;-56
2023/05/04 07:58:18;;;;;;;;;;;;;;;24.13;44.78;100376.88;5091327;28;19927;-56
2023/05/04 08:00:43;;;;;;;;;;;;;;;24.39;44.50;100372.84;5089519;28;19920;-56
2023/05/04 08:03:09;;;;;;;;;;;;;;;24.48;44.24;100374.81;5093551;28;19981;-56
2023/05/04 08:05:34;;;;;;;;;;;;;;;24.63;44.78;100376.22;5091456;28;19916;-56
2023/05/04 08:07:59;;;;;;;;;;;;;;;24.71;44.57;100373.75;5090318;28;20427;-56
2023/05/04 08:10:24;;;;;;;;;;;;;;;24.91;43.30;100372.91;5091288;28;19916;-56
2023/05/04 08:12:50;;;;;;;;;;;;;;;24.43;44.54;100368.91;5090532;28;20010;-56
2023/05/04 08:15:15;;;;;;;;;;;;;;;24.65;44.29;100374.22;5091051;28;20318;-56
2023/05/04 08:17:41;;;;;;;;;;;;;;;25.08;43.42;100376.88;5091617;28;19915;-56
2023/05/04 08:20:06;;;;;;;;;;;;;;;25.24;42.40;100380.88;5090742;28;19966;-56
2023/05/04 08:22:32;;;;;;;;;;;;;;;25.37;41.10;100373.38;5090423;28;19915;-56
2023/05/04 08:24:57;;;;;;;;;;;;;;;25.31;41.99;100373.91;5089693;28;19926;-56
2023/05/04 08:27:23;;;;;;;;;;;;;;;25.45;41.52;100364.53;5089595;28;19959;-56
2023/05/04 08:29:48;;;;;;;;;;;;;;;25.11;43.63;100360.28;5090708;28;20656;-56
2023/05/04 08:32:13;;;;;;;;;;;;;;;25.26;43.90;100365.25;5090942;28;19916;-55
2023/05/04 08:34:38;;;;;;;;;;;;;;;25.84;43.05;100353.69;5090230;28;19920;-56
2023/05/04 08:37:04;;;;;;;;;;;;;;;26.27;41.21;100357.97;5090387;28;20291;-55
2023/05/04 08:39:29;;;;;;;;;;;;;;;26.71;41.46;100352.00;5090524;28;19912;-56
2023/05/04 08:41:55;;;;;;;;;;;;;;;26.55;39.87;100360.75;5090420;28;19922;-55
2023/05/04 08:44:20;;;;;;;;;;;;;;;26.54;39.94;100355.44;5089083;28;20303;-56
2023/05/04 08:46:52;;;;;;;;;;;;;;;25.78;40.71;100370.56;5090538;28;20383;-56
2023/05/04 08:49:20;;;;;;;;;;;;;;;26.28;41.30;100365.13;5089771;28;20010;-56
2023/05/04 08:51:47;;;;;;;;;;;;;;;26.87;39.82;100374.16;5091311;28;19939;-55
2023/05/04 08:54:12;;;;;;;;;;;;;;;27.38;39.36;100371.91;5090353;28;19916;-56
2023/05/04 08:56:39;;;;;;;;;;;;;;;27.03;39.53;100374.41;5090544;28;20598;-56
2023/05/04 08:59:05;;;;;;;;;;;;;;;27.52;38.96;100370.59;5090685;28;19916;-56
2023/05/04 09:01:31;;;;;;;;;;;;;;;27.89;40.43;100372.31;5090831;28;19916;-56
2023/05/04 09:03:59;;;;;;;;;;;;;;;28.06;39.12;100366.06;5089890;28;20015;-56
2023/05/04 09:06:24;;;;;;;;;;;;;;;28.17;38.15;100357.63;5093536;28;19922;-56
2023/05/04 09:08:50;;;;;;;;;;;;;;;27.33;38.18;100363.28;5090538;28;20003;-56
2023/05/04 09:11:15;;;;;;;;;;;;;;;27.38;39.66;100352.78;5089680;28;20019;-56
2023/05/04 09:13:41;;;;;;;;;;;;;;;27.70;38.87;100357.84;5090685;28;19912;-56
2023/05/04 09:16:07;;;;;;;;;;;;;;;27.77;38.30;100359.84;5088476;28;19927;-56
2023/05/04 09:18:36;;;;;;;;;;;;;;;27.62;37.38;100358.63;5089406;28;19916;-56
2023/05/04 09:21:02;;;;;;;;;;;;;;;27.62;37.79;100361.34;5089546;28;19923;-56
2023/05/04 09:23:27;;;;;;;;;;;;;;;27.88;37.57;100354.19;5089676;28;19911;-56
2023/05/04 09:25:53;;;;;;;;;;;;;;;28.20;36.78;100356.47;5088571;28;19916;-56
2023/05/04 09:28:20;;;;;;;;;;;;;;;28.35;37.57;100357.69;5088767;28;19931;-56
2023/05/04 09:30:47;;;;;;;;;;;;;;;28.43;36.28;100357.75;5089123;28;19920;-56
2023/05/04 09:33:12;;;;;;;;;;;;;;;28.57;34.75;100354.50;5089775;28;19920;-56
2023/05/04 09:35:39;;;;;;;;;;;;;;;28.74;35.30;100355.53;5089589;28;20436;-55
2023/05/04 09:38:06;;;;;;;;;;;;;;;28.76;36.89;100354.38;5089229;28;19935;-56
2023/05/04 09:40:39;;;;;;;;;;;;;;;28.80;36.13;100346.69;5091343;28;19916;-56
2023/05/04 09:43:05;;;;;;;;;;;;;;;28.97;36.30;100352.16;5089232;28;19927;-56
2023/05/04 09:45:39;;;;;;;;;;;;;;;29.25;34.68;100345.56;5090246;28;20148;-56
2023/05/04 09:48:24;;;;;;;;;;;;;;;29.37;34.27;100343.41;5089425;28;19962;-56
2023/05/04 09:50:56;;;;;;;;;;;;;;;29.48;33.97;100346.72;5087225;28;20344;-56
2023/05/04 09:53:25;;;;;;;;;;;;;;;29.51;36.53;100342.78;5091558;28;20396;-56
2023/05/04 09:56:10;;;;;;;;;;;;;;;29.32;34.27;100337.53;5088194;28;19989;-56
2023/05/04 09:58:35;;;;;;;;;;;;;;;29.13;36.88;100340.47;5088400;28;19997;-56
2023/05/04 10:01:01;;;;;;;;;;;;;;;29.66;35.13;100343.94;5088206;28;19920;-56
2023/05/04 10:03:30;;;;;;;;;;;;;;;29.80;34.74;100334.25;5089042;28;19985;-56
2023/05/04 10:05:57;;;;;;;;;;;;;;;30.08;33.19;100333.84;5089509;28;20019;-56
2023/05/04 10:08:22;;;;;;;;;;;;;;;29.57;34.06;100340.25;5089049;28;19916;-55
2023/05/04 10:10:47;;;;;;;;;;;;;;;29.67;34.83;100330.06;5089486;28;19916;-56
2023/05/04 10:13:13;;;;;;;;;;;;;;;30.14;34.37;100322.19;5089301;28;20642;-56
2023/05/04 10:15:43;;;;;;;;;;;;;;;29.82;32.72;100321.22;5088208;28;20411;-56
2023/05/04 10:18:32;;;;;;;;;;;;;;;29.36;33.45;100325.22;5088735;28;19920;-55
2023/05/04 10:21:16;;;;;;;;;;;;;;;29.40;35.23;100321.16;5090243;28;20007;-56
2023/05/04 10:23:47;;;;;;;;;;;;;;;29.37;35.42;100316.81;5088395;28;20367;-56
2023/05/04 10:26:31;;;;;;;;;;;;;;;29.89;32.90;100312.16;5088039;28;19991;-56
2023/05/04 10:29:15;;;;;;;;;;;;;;;30.10;34.46;100301.59;5089052;28;19931;-56
2023/05/04 10:31:41;;;;;;;;;;;;;;;30.13;32.60;100301.25;5089263;28;19916;-55
2023/05/04 10:34:07;;;;;;;;;;;;;;;29.86;34.18;100296.03;5089061;28;19943;-56
2023/05/04 10:36:39;;;;;;;;;;;;;;;29.73;36.58;100290.16;5089818;28;20006;-55
2023/05/04 10:39:04;;;;;;;;;;;;;;;29.89;33.13;100284.72;5089480;28;19919;-55
2023/05/04 10:41:31;;;;;;;;;;;;;;;30.19;32.83;100269.53;5088944;28;19916;-55
2023/05/04 10:44:03;;;;;;;;;;;;;;;30.51;35.37;100281.44;5089237;28;19919;-55
2023/05/04 10:46:28;;;;;;;;;;;;;;;30.98;32.42;100272.53;5089093;28;19920;-56
2023/05/04 10:48:54;;;;;;;;;;;;;;;30.31;31.42;100263.56;5087834;28;19924;-55
2023/05/04 10:51:20;;;;;;;;;;;;;;;30.40;33.39;100257.09;5089237;28;19959;-55
2023/05/04 10:53:46;;;;;;;;;;;;;;;30.31;32.50;100260.84;5089113;28;19916;-55
2023/05/04 10:56:24;;;;;;;;;;;;;;;30.52;33.30;100261.22;5088747;28;19912;-56
2023/05/04 10:58:50;;;;;;;;;;;;;;;30.87;31.69;100258.13;5088915;28;20446;-55
2023/05/04 11:01:16;;;;;;;;;;;;;;;30.64;30.11;100254.31;5103898;28;20072;-56
2023/05/04 11:03:41;;;;;;;;;;;;;;;30.53;30.32;100251.94;5088248;28;19920;-56
2023/05/04 11:06:17;;;;;;;;;;;;;;;30.45;33.57;100242.84;5088434;28;20124;-56
2023/05/04 11:08:42;;;;;;;;;;;;;;;30.63;33.18;100240.78;5087440;28;20685;-56
2023/05/04 11:11:08;;;;;;;;;;;;;;;31.13;32.86;100243.31;5088482;28;19920;-56
2023/05/04 11:13:34;;;;;;;;;;;;;;;30.83;31.47;100229.31;5087561;28;20462;-56
2023/05/04 11:15:59;;;;;;;;;;;;;;;31.33;33.17;100217.19;5070162;28;19920;-56
2023/05/04 11:18:29;;;;;;;;;;;;;;;31.73;32.05;100222.50;5089282;28;20441;-56
2023/05/04 11:20:55;;;;;;;;;;;;;;;31.97;31.85;100225.16;5087258;28;19920;-56
2023/05/04 11:23:20;;;;;;;;;;;;;;;32.35;29.44;100226.94;5091833;28;19965;-56
2023/05/04 11:25:45;;;;;;;;;;;;;;;32.17;31.25;100222.78;5092664;28;19912;-56
2023/05/04 11:28:11;;;;;;;;;;;;;;;32.45;29.42;100213.81;5091947;28;19916;-56
2023/05/04 11:30:36;;;;;;;;;;;;;;;32.09;30.86;100212.69;5092556;28;19923;-56
2023/05/04 11:33:03;;;;;;;;;;;;;;;31.81;30.11;100200.44;5091954;28;19916;-56
2023/05/04 11:35:29;;;;;;;;;;;;;;;32.04;31.26;100201.38;5092344;28;19916;-57
2023/05/04 11:37:55;;;;;;;;;;;;;;;32.13;32.94;100201.13;5092531;28;19916;-56
2023/05/04 11:40:21;;;;;;;;;;;;;;;32.27;31.29;100196.72;5093766;28;19956;-56
2023/05/04 11:42:50;;;;;;;;;;;;;;;32.19;32.91;100188.53;5101975;28;19927;-56
2023/05/04 11:45:17;;;;;;;;;;;;;;;32.28;30.10;100187.41;5102209;28;19919;-57
2023/05/04 11:47:42;;;;;;;;;;;;;;;32.51;31.27;100184.66;5092404;28;20014;-56
2023/05/04 11:50:09;;;;;;;;;;;;;;;32.77;31.24;100182.38;5091605;28;20011;-57
2023/05/04 11:52:35;;;;;;;;;;;;;;;32.36;29.88;100184.59;5092051;28;19920;-56
2023/05/04 11:55:01;;;;;;;;;;;;;;;32.22;30.32;100174.38;5109529;28;19923;-56
2023/05/04 11:57:27;;;;;;;;;;;;;;;32.44;32.28;100179.03;5092541;28;20016;-56
2023/05/04 11:59:52;;;;;;;;;;;;;;;32.52;28.58;100178.13;5091975;28;20013;-56
2023/05/04 12:02:17;;;;;;;;;;;;;;;32.31;29.15;100170.50;5091928;28;19916;-56
2023/05/04 12:04:43;;;;;;;;;;;;;;;32.95;31.22;100171.88;5090139;28;20518;-57
2023/05/04 12:07:08;;;;;;;;;;;;;;;33.08;28.37;100167.38;5091921;28;19927;-56
2023/05/04 12:09:47;;;;;;;;;;;;;;;33.21;28.53;100167.56;5091737;28;20014;-56
2023/05/04 12:12:17;;;;;;;;;;;;;;;33.38;27.47;100162.69;5091277;28;19920;-56
2023/05/04 12:14:46;;;;;;;;;;;;;;;33.41;28.58;100158.72;5090962;28;19916;-56
2023/05/04 12:17:11;;;;;;;;;;;;;;;33.40;27.60;100168.88;5089689;28;20605;-56
2023/05/04 12:19:45;;;;;;;;;;;;;;;33.17;28.95;100157.09;5091284;28;19916;-57
2023/05/04 12:22:11;;;;;;;;;;;;;;;33.13;29.60;100153.88;5089919;28;19917;-56
2023/05/04 12:24:38;;;;;;;;;;;;;;;33.29;29.57;100153.69;5090366;28;19927;-57
2023/05/04 12:27:04;;;;;;;;;;;;;;;33.45;29.49;100152.63;5090571;28;20284;-57
2023/05/04 12:29:29;;;;;;;;;;;;;;;33.65;30.96;100141.84;5091539;28;19917;-56